Time;durP1;ratioP1;P1;durP2;ratioP2;P2;SDS_P1;SDS_P2;PMS_P1;PMS_P2;Temp;Humidity;BMP_temperature;BMP_pressure;BME280_temperature;BME280_humidity;BME280_pressure;Samples;Min_cycle;Max_cycle;Signal;HPM_P1;HPM_P2
2023/12/18 00:01:07;;;;;;;6.03;3.42;;;;;;;1.59;100.00;102331.19;5057428;28;20025;-73
2023/12/18 00:03:34;;;;;;;3.80;3.60;;;;;;;1.96;100.00;102444.91;5060402;28;20137;-75
2023/12/18 00:05:59;;;;;;;2.85;2.65;;;;;;;1.87;100.00;102440.03;5064396;28;20136;-74
2023/12/18 00:08:26;;;;;;;1.10;1.10;;;;;;;1.49;100.00;102359.78;5048381;28;20139;-73
2023/12/18 00:10:52;;;;;;;6.63;6.32;;;;;;;1.27;100.00;102311.78;5065412;28;20063;-74
2023/12/18 00:13:17;;;;;;;1.30;1.20;;;;;;;1.19;100.00;102312.03;5062194;28;20040;-74
2023/12/18 00:15:43;;;;;;;2.22;2.15;;;;;;;1.75;100.00;102439.19;5063338;28;20032;-73
2023/12/18 00:18:08;;;;;;;2.20;2.10;;;;;;;1.64;100.00;102437.56;5063759;28;20049;-73
2023/12/18 00:20:35;;;;;;;10.30;8.65;;;;;;;1.00;100.00;102315.94;5057414;28;20049;-73
2023/12/18 00:23:01;;;;;;;4.38;4.07;;;;;;;1.78;100.00;102439.41;5060501;28;20052;-75
2023/12/18 00:25:27;;;;;;;2.30;1.98;;;;;;;1.27;100.00;102427.25;5058641;28;20043;-74
2023/12/18 00:27:52;;;;;;;0.30;0.30;;;;;;;1.02;100.00;102339.31;5062152;28;20032;-74
2023/12/18 00:30:18;;;;;;;0.75;0.75;;;;;;;-0.10;100.00;102143.81;5063437;28;20080;-74
2023/12/18 00:32:43;;;;;;;0.85;0.82;;;;;;;1.15;100.00;102373.00;5065288;28;20036;-74
2023/12/18 00:35:09;;;;;;;0.65;0.65;;;;;;;1.71;100.00;102444.03;5048951;28;20041;-74
2023/12/18 00:37:34;;;;;;;1.55;1.08;;;;;;;1.09;100.00;102328.59;5044973;28;20056;-74
2023/12/18 00:40:00;;;;;;;0.98;0.98;;;;;;;0.96;100.00;102325.94;5063466;28;20902;-74
2023/12/18 00:42:25;;;;;;;1.88;1.77;;;;;;;1.13;100.00;102430.56;5065161;28;20045;-74
2023/12/18 00:44:51;;;;;;;2.40;2.30;;;;;;;0.69;100.00;102317.19;5060049;28;20607;-74
2023/12/18 00:47:18;;;;;;;0.90;0.85;;;;;;;0.91;100.00;102314.41;5063686;28;20043;-74
2023/12/18 00:49:44;;;;;;;1.50;1.40;;;;;;;0.96;100.00;102318.19;5061612;28;20747;-73
2023/12/18 00:52:09;;;;;;;10.40;7.57;;;;;;;1.58;100.00;102426.78;5066113;28;20063;-73
2023/12/18 00:54:35;;;;;;;3.08;2.92;;;;;;;1.32;100.00;102435.34;5064863;28;20087;-74
2023/12/18 00:57:00;;;;;;;16.23;9.18;;;;;;;0.97;100.00;102385.50;5055313;28;20044;-73
2023/12/18 00:59:26;;;;;;;4.32;0.60;;;;;;;1.51;100.00;102429.75;5067013;28;20045;-73
2023/12/18 01:01:51;;;;;;;0.50;0.50;;;;;;;1.64;100.00;102422.06;5062563;28;20041;-73
2023/12/18 01:04:20;;;;;;;0.40;0.40;;;;;;;1.50;100.00;102408.16;5072388;28;20039;-72
2023/12/18 01:06:45;;;;;;;0.60;0.60;;;;;;;1.37;100.00;102387.41;5068279;28;20033;-75
2023/12/18 01:09:12;;;;;;;1.48;1.40;;;;;;;1.55;100.00;102391.25;5060351;28;20542;-73
2023/12/18 01:11:39;;;;;;;2.00;1.80;;;;;;;1.09;100.00;102297.59;5061709;28;20049;-75
2023/12/18 01:14:04;;;;;;;0.47;0.47;;;;;;;1.59;100.00;102382.94;5059648;28;20047;-74
2023/12/18 01:16:30;;;;;;;1.95;1.85;;;;;;;1.47;100.00;102385.56;5064126;28;20115;-75
2023/12/18 01:18:56;;;;;;;2.30;2.20;;;;;;;0.76;100.00;102247.94;5064791;28;20548;-74
2023/12/18 01:21:21;;;;;;;4.30;3.97;;;;;;;1.25;100.00;102341.81;5056437;28;20999;-74
2023/12/18 01:23:47;;;;;;;5.65;5.15;;;;;;;0.82;100.00;102273.34;5045614;28;20052;-75
2023/12/18 01:26:12;;;;;;;0.50;0.50;;;;;;;1.13;100.00;102321.97;5039486;28;20134;-74
2023/12/18 01:28:40;;;;;;;0.60;0.50;;;;;;;1.08;100.00;102312.97;5061003;28;23123;-74
2023/12/18 01:31:07;;;;;;;0.75;0.75;;;;;;;1.18;100.00;102318.91;5063649;28;20071;-74
2023/12/18 01:33:33;;;;;;;2.08;1.95;;;;;;;1.29;100.00;102349.75;5064184;28;20369;-74
2023/12/18 01:35:58;;;;;;;0.50;0.50;;;;;;;0.89;100.00;102246.22;5063097;28;20110;-74
2023/12/18 01:38:24;;;;;;;0.32;0.32;;;;;;;1.35;100.00;102334.69;5042364;28;20100;-75
2023/12/18 01:40:49;;;;;;;4.97;4.72;;;;;;;1.12;100.00;102307.25;5051627;28;20044;-74
2023/12/18 01:43:28;;;;;;;5.47;5.13;;;;;;;0.84;100.00;102245.88;5066692;28;20493;-74
2023/12/18 01:45:59;;;;;;;1.02;0.93;;;;;;;0.83;100.00;102242.41;5055827;28;20048;-73
2023/12/18 01:48:26;;;;;;;0.43;0.43;;;;;;;0.93;100.00;102285.28;5057378;28;20048;-74
2023/12/18 01:50:56;;;;;;;1.17;1.17;;;;;;;0.89;100.00;102277.22;5059645;28;20053;-74
2023/12/18 01:53:25;;;;;;;2.15;2.05;;;;;;;1.33;100.00;102328.50;5038455;28;20033;-74
2023/12/18 01:55:51;;;;;;;0.60;0.60;;;;;;;1.31;100.00;102317.16;5059623;28;20075;-75
2023/12/18 01:58:18;;;;;;;3.90;3.63;;;;;;;0.73;100.00;102223.59;5059429;28;20045;-74
2023/12/18 02:00:44;;;;;;;6.43;6.07;;;;;;;0.80;100.00;102234.47;5059580;28;20109;-76
2023/12/18 02:03:12;;;;;;;4.90;4.68;;;;;;;0.57;100.00;102227.69;5057396;28;20053;-75
2023/12/18 02:05:39;;;;;;;4.88;4.50;;;;;;;1.23;100.00;102332.16;5055662;28;20048;-73
2023/12/18 02:08:06;;;;;;;1.17;1.13;;;;;;;1.17;100.00;102326.53;5054656;28;20507;-74
2023/12/18 02:10:32;;;;;;;1.90;1.80;;;;;;;1.16;100.00;102312.72;5039091;28;20037;-73
2023/12/18 02:12:58;;;;;;;1.88;1.80;;;;;;;0.41;100.00;102205.06;5043973;28;20453;-74
2023/12/18 02:15:23;;;;;;;0.75;0.75;;;;;;;0.44;100.00;102213.81;5061376;28;20111;-73
2023/12/18 02:17:50;;;;;;;1.60;1.50;;;;;;;0.54;100.00;102188.75;5060930;28;20056;-74
2023/12/18 02:20:16;;;;;;;3.42;3.22;;;;;;;1.21;100.00;102313.94;5056126;28;20056;-74
2023/12/18 02:22:47;;;;;;;5.38;4.95;;;;;;;1.14;100.00;102314.31;5058502;28;20091;-74
2023/12/18 02:25:16;;;;;;;0.70;0.70;;;;;;;0.33;100.00;102175.25;5060769;28;20567;-74
2023/12/18 02:27:44;;;;;;;9.23;7.97;;;;;;;0.85;100.00;102286.47;5061385;28;20098;-74
2023/12/18 02:30:15;;;;;;;0.50;0.50;;;;;;;1.18;100.00;102328.34;5062541;28;20457;-74
2023/12/18 02:32:40;;;;;;;7.25;2.78;;;;;;;0.61;100.00;102237.47;5059465;28;20079;-75
2023/12/18 02:35:07;;;;;;;15.73;14.52;;;;;;;0.91;100.00;102293.72;5057428;28;20040;-74
2023/12/18 02:37:32;;;;;;;2.38;2.28;;;;;;;0.34;100.00;102204.53;5030055;28;20080;-74
2023/12/18 02:39:58;;;;;;;5.82;5.50;;;;;;;0.73;100.00;102267.53;5049688;28;20033;-74
2023/12/18 02:42:23;;;;;;;1.38;1.27;;;;;;;0.96;100.00;102313.94;5064363;28;20056;-74
2023/12/18 02:44:49;;;;;;;11.88;10.80;;;;;;;0.81;100.00;102279.28;5056686;28;20127;-74
2023/12/18 02:47:14;;;;;;;4.50;4.30;;;;;;;0.91;100.00;102307.53;5063693;28;20284;-75
2023/12/18 02:49:40;;;;;;;15.55;6.18;;;;;;;0.40;100.00;102228.22;5066063;28;20129;-75
2023/12/18 02:52:05;;;;;;;1.88;1.77;;;;;;;0.62;100.00;102310.69;5061702;28;20089;-74
2023/12/18 02:54:31;;;;;;;0.65;0.65;;;;;;;0.49;100.00;102246.03;5042653;28;20055;-74
2023/12/18 02:56:56;;;;;;;0.60;0.60;;;;;;;0.36;100.00;102209.00;5054741;28;20132;-75
2023/12/18 02:59:22;;;;;;;2.47;2.38;;;;;;;0.80;100.00;102278.38;5060924;28;21389;-74
2023/12/18 03:01:47;;;;;;;0.70;0.70;;;;;;;0.86;100.00;102301.16;5063048;28;20056;-74
2023/12/18 03:04:13;;;;;;;4.88;4.47;;;;;;;0.75;100.00;102273.66;5064617;28;20046;-73
2023/12/18 03:06:39;;;;;;;2.30;2.20;;;;;;;0.28;100.00;102184.38;5062880;28;20082;-74
2023/12/18 03:09:05;;;;;;;3.60;3.40;;;;;;;0.27;100.00;102203.19;5045557;28;20048;-74
2023/12/18 03:11:30;;;;;;;0.85;0.85;;;;;;;0.91;100.00;102324.75;5041827;28;20054;-75
2023/12/18 03:13:56;;;;;;;1.65;1.55;;;;;;;0.87;100.00;102314.97;5064940;28;20059;-75
2023/12/18 03:16:21;;;;;;;1.15;1.15;;;;;;;0.46;100.00;102231.22;5066221;28;20037;-75
2023/12/18 03:18:47;;;;;;;2.88;2.67;;;;;;;0.81;100.00;102287.03;5064606;28;20072;-75
2023/12/18 03:21:12;;;;;;;15.00;10.05;;;;;;;0.55;100.00;102256.78;5065087;28;20044;-74
2023/12/18 03:23:40;;;;;;;2.03;1.92;;;;;;;0.43;100.00;102215.50;5063106;28;20048;-75
2023/12/18 03:26:05;;;;;;;4.45;4.15;;;;;;;0.74;100.00;102287.41;5043534;28;20059;-75
2023/12/18 03:28:31;;;;;;;0.45;0.45;;;;;;;0.65;100.00;102302.25;5034509;28;20037;-75
2023/12/18 03:30:56;;;;;;;1.05;0.98;;;;;;;0.57;100.00;102281.06;5065923;28;20044;-74
2023/12/18 03:33:21;;;;;;;0.93;0.93;;;;;;;0.14;100.00;102219.53;5060383;28;20052;-74
2023/12/18 03:35:47;;;;;;;6.45;5.88;;;;;;;0.62;100.00;102285.75;5063083;28;20041;-74
2023/12/18 03:38:12;;;;;;;0.90;0.90;;;;;;;0.68;100.00;102292.13;5063409;28;20503;-75
2023/12/18 03:40:38;;;;;;;1.65;1.55;;;;;;;0.50;100.00;102284.00;5066608;28;20060;-74
2023/12/18 03:43:04;;;;;;;0.52;0.52;;;;;;;0.39;100.00;102276.34;5066104;28;20123;-74
2023/12/18 03:45:30;;;;;;;0.68;0.68;;;;;;;0.39;100.00;102245.38;5058017;28;20069;-75
2023/12/18 03:47:56;;;;;;;2.08;1.98;;;;;;;0.51;100.00;102259.94;5059861;28;20135;-75
2023/12/18 03:50:21;;;;;;;1.77;1.67;;;;;;;0.71;100.00;102293.25;5055602;28;20068;-74
2023/12/18 03:52:47;;;;;;;0.60;0.60;;;;;;;0.56;100.00;102258.56;5065267;28;20462;-74
2023/12/18 03:55:12;;;;;;;0.40;0.40;;;;;;;-0.22;100.00;102185.13;5048961;28;20028;-74
2023/12/18 03:57:39;;;;;;;4.78;4.47;;;;;;;0.01;100.00;102246.91;5066562;28;20056;-74
2023/12/18 04:00:06;;;;;;;2.10;2.00;;;;;;;-0.16;100.00;102171.78;5066999;28;20047;-74
2023/12/18 04:02:33;;;;;;;1.63;1.52;;;;;;;0.03;100.00;102186.00;5062492;28;20052;-73
2023/12/18 04:04:58;;;;;;;2.75;2.65;;;;;;;0.41;100.00;102298.03;5063445;28;20101;-73
2023/12/18 04:07:24;;;;;;;0.75;0.75;;;;;;;-0.18;100.00;102209.47;5071021;28;20029;-74
2023/12/18 04:09:49;;;;;;;0.30;0.30;;;;;;;0.10;100.00;102239.84;5068564;28;20077;-74
2023/12/18 04:12:15;;;;;;;1.67;1.60;;;;;;;0.03;100.00;102224.72;5038692;28;20040;-73
2023/12/18 04:14:44;;;;;;;1.95;1.85;;;;;;;0.38;100.00;102278.84;5060376;28;20051;-73
2023/12/18 04:17:09;;;;;;;0.73;0.73;;;;;;;0.43;100.00;102279.19;5062352;28;20078;-73
2023/12/18 04:19:35;;;;;;;0.80;0.80;;;;;;;0.53;100.00;102290.25;5063347;28;20454;-74
2023/12/18 04:22:00;;;;;;;0.60;0.60;;;;;;;-0.15;100.00;102158.06;5055922;28;20032;-73
2023/12/18 04:24:26;;;;;;;0.82;0.82;;;;;;;-0.09;100.00;102192.06;5041182;28;20064;-73
2023/12/18 04:26:51;;;;;;;4.32;3.92;;;;;;;-0.19;100.00;102178.38;5064482;28;20049;-73
2023/12/18 04:29:17;;;;;;;12.48;3.92;;;;;;;0.23;100.00;102267.41;5065234;28;20068;-74
2023/12/18 04:31:43;;;;;;;0.63;0.63;;;;;;;-0.20;100.00;102176.59;5062834;28;20053;-74
2023/12/18 04:34:08;;;;;;;0.90;0.63;;;;;;;0.25;100.00;102265.84;5040603;28;20094;-74
2023/12/18 04:36:40;;;;;;;0.73;0.73;;;;;;;0.48;100.00;102289.03;5071453;28;20079;-73
2023/12/18 04:39:05;;;;;;;2.22;2.13;;;;;;;0.39;100.00;102283.22;5060634;28;20110;-74
2023/12/18 04:41:31;;;;;;;4.50;3.38;;;;;;;0.38;100.00;102272.00;5068251;28;20083;-73
2023/12/18 04:43:57;;;;;;;4.35;4.13;;;;;;;-0.13;100.00;102191.75;5059548;28;20044;-72
2023/12/18 04:46:22;;;;;;;0.30;0.30;;;;;;;0.19;100.00;102258.56;5046335;28;20420;-74
2023/12/18 04:48:48;;;;;;;2.65;2.45;;;;;;;-0.12;100.00;102198.69;5062311;28;20036;-74
2023/12/18 04:51:15;;;;;;;0.63;0.63;;;;;;;-0.11;100.00;102208.22;5062346;28;20051;-74
2023/12/18 04:53:40;;;;;;;1.13;1.05;;;;;;;0.18;100.00;102314.44;5062695;28;20080;-74
2023/12/18 04:56:06;;;;;;;26.80;9.68;;;;;;;-0.04;100.00;102238.84;5064573;28;20757;-74
2023/12/18 04:58:35;;;;;;;1.40;1.35;;;;;;;0.32;100.00;102268.97;5060836;28;20131;-74
2023/12/18 05:01:02;;;;;;;0.73;0.73;;;;;;;-0.08;100.00;102198.13;5065519;28;20024;-74
2023/12/18 05:03:28;;;;;;;1.15;1.15;;;;;;;-0.11;100.00;102206.53;5063882;28;20051;-74
2023/12/18 05:05:53;;;;;;;0.40;0.40;;;;;;;-0.17;100.00;102198.34;5049731;28;20049;-74
2023/12/18 05:08:19;;;;;;;4.68;4.38;;;;;;;0.04;100.00;102199.00;5063076;28;20075;-75
2023/12/18 05:10:45;;;;;;;2.63;2.47;;;;;;;-0.12;100.00;102167.72;5049747;28;20139;-75
2023/12/18 05:13:10;;;;;;;1.40;1.30;;;;;;;0.54;100.00;102271.41;5044493;28;20499;-75
2023/12/18 05:15:36;;;;;;;1.38;1.38;;;;;;;-0.01;100.00;102169.38;5042373;28;20064;-75
2023/12/18 05:18:02;;;;;;;2.35;2.25;;;;;;;-0.10;100.00;102163.56;5055072;28;20056;-73
2023/12/18 05:20:27;;;;;;;0.40;0.40;;;;;;;-0.07;100.00;102195.66;5048342;28;20056;-76
2023/12/18 05:22:53;;;;;;;4.95;4.68;;;;;;;0.37;100.00;102277.94;5050146;28;20059;-74
2023/12/18 05:25:18;;;;;;;0.30;0.30;;;;;;;0.01;100.00;102180.72;5061302;28;20025;-74
2023/12/18 05:27:44;;;;;;;0.40;0.40;;;;;;;0.25;100.00;102251.25;5062185;28;20058;-75
2023/12/18 05:30:10;;;;;;;1.00;1.00;;;;;;;0.59;100.00;102308.78;5061458;28;20048;-74
2023/12/18 05:32:35;;;;;;;4.38;4.15;;;;;;;-0.04;100.00;102179.50;5057218;28;20059;-75
2023/12/18 05:35:02;;;;;;;0.60;0.60;;;;;;;0.48;100.00;102268.38;5068344;28;20048;-74
2023/12/18 05:37:28;;;;;;;0.65;0.65;;;;;;;0.02;100.00;102181.59;5062150;28;20115;-73
2023/12/18 05:39:54;;;;;;;2.92;2.83;;;;;;;0.26;100.00;102267.63;5042450;28;20038;-73
2023/12/18 05:42:20;;;;;;;0.38;0.38;;;;;;;0.45;100.00;102306.91;5059995;28;20052;-74
2023/12/18 05:44:45;;;;;;;0.57;0.57;;;;;;;-0.27;100.00;102188.16;5057539;28;20051;-76
2023/12/18 05:47:11;;;;;;;0.85;0.68;;;;;;;0.46;100.00;102277.69;5043249;28;20583;-75
2023/12/18 05:49:37;;;;;;;0.38;0.38;;;;;;;0.09;100.00;102196.75;5058321;28;20659;-73
2023/12/18 05:52:03;;;;;;;0.60;0.60;;;;;;;0.56;100.00;102279.25;5059468;28;20038;-77
2023/12/18 05:54:29;;;;;;;1.45;1.40;;;;;;;0.61;100.00;102294.28;5059644;28;20401;-75
2023/12/18 05:56:56;;;;;;;0.85;0.85;;;;;;;0.03;100.00;102175.69;5058640;28;20613;-74
2023/12/18 05:59:22;;;;;;;0.40;0.40;;;;;;;0.03;100.00;102165.34;5060799;28;20063;-74
2023/12/18 06:01:47;;;;;;;0.40;0.40;;;;;;;-0.03;100.00;102158.94;5061362;28;20057;-76
2023/12/18 06:04:13;;;;;;;7.85;7.43;;;;;;;0.63;100.00;102263.38;5056538;28;20028;-75
2023/12/18 06:06:38;;;;;;;0.50;0.50;;;;;;;0.01;100.00;102183.28;5062554;28;20697;-74
2023/12/18 06:09:04;;;;;;;2.22;2.13;;;;;;;0.05;100.00;102208.53;5058772;28;20541;-74
2023/12/18 06:11:29;;;;;;;0.45;0.45;;;;;;;0.40;100.00;102254.03;5060095;28;20136;-75
2023/12/18 06:13:55;;;;;;;0.85;0.85;;;;;;;0.02;100.00;102271.94;5056427;28;20167;-74
2023/12/18 06:16:21;;;;;;;0.40;0.40;;;;;;;0.34;100.00;102266.50;5059642;28;20058;-75
2023/12/18 06:18:48;;;;;;;1.33;1.30;;;;;;;0.63;100.00;102294.38;5061242;28;20048;-74
2023/12/18 06:21:14;;;;;;;0.45;0.45;;;;;;;-0.23;100.00;102162.69;5059482;28;20135;-74
2023/12/18 06:23:41;;;;;;;3.00;2.80;;;;;;;0.10;100.00;102186.53;5057828;28;20123;-73
2023/12/18 06:26:07;;;;;;;0.60;0.60;;;;;;;0.71;100.00;102288.06;5058945;28;20044;-75
2023/12/18 06:28:32;;;;;;;2.45;2.35;;;;;;;0.11;100.00;102166.78;5058341;28;20037;-74
2023/12/18 06:30:58;;;;;;;0.50;0.50;;;;;;;0.66;100.00;102284.28;5061725;28;20068;-72
2023/12/18 06:33:24;;;;;;;3.10;2.65;;;;;;;0.77;100.00;102265.28;5061137;28;20044;-75
2023/12/18 06:35:51;;;;;;;2.13;1.90;;;;;;;-0.02;100.00;102173.66;5058579;28;20127;-74
2023/12/18 06:38:16;;;;;;;2.80;2.70;;;;;;;0.12;100.00;102166.00;5062647;28;20047;-73
2023/12/18 06:40:42;;;;;;;1.15;1.10;;;;;;;0.82;100.00;102276.81;5062474;28;20052;-76
2023/12/18 06:43:07;;;;;;;2.00;0.93;;;;;;;0.98;100.00;102277.84;5046075;28;20468;-74
2023/12/18 06:45:33;;;;;;;2.88;2.65;;;;;;;1.01;100.00;102249.66;5059256;28;20068;-75
2023/12/18 06:47:58;;;;;;;1.08;1.05;;;;;;;0.93;100.00;102261.13;5064729;28;20511;-75
2023/12/18 06:50:24;;;;;;;0.85;0.85;;;;;;;-0.04;100.00;102133.94;5067524;28;20091;-75
2023/12/18 06:52:49;;;;;;;12.38;5.35;;;;;;;0.62;100.00;102233.19;5058831;28;20053;-74
2023/12/18 06:55:15;;;;;;;0.55;0.55;;;;;;;0.18;100.00;102133.75;5062199;28;20427;-74
2023/12/18 06:57:40;;;;;;;2.65;2.45;;;;;;;0.97;100.00;102238.19;5059297;28;20236;-74
2023/12/18 07:00:07;;;;;;;4.97;4.78;;;;;;;0.36;100.00;102135.84;5060526;28;20057;-74
2023/12/18 07:02:32;;;;;;;2.22;2.13;;;;;;;0.66;100.00;102169.72;5060228;28;20052;-73
2023/12/18 07:04:58;;;;;;;0.57;0.57;;;;;;;0.46;100.00;102151.16;5026439;28;20079;-74
2023/12/18 07:07:23;;;;;;;1.10;1.10;;;;;;;0.71;100.00;102158.91;5018569;28;20087;-75
2023/12/18 07:09:50;;;;;;;0.65;0.65;;;;;;;0.92;100.00;102176.66;5061244;28;20033;-73
2023/12/18 07:12:16;;;;;;;6.65;6.07;;;;;;;0.91;100.00;102155.06;5063759;28;21024;-74
2023/12/18 07:14:42;;;;;;;0.60;0.60;;;;;;;0.81;100.00;102158.72;5042052;28;20057;-75
2023/12/18 07:17:07;;;;;;;1.23;1.15;;;;;;;0.88;100.00;102175.53;5065517;28;20068;-74
2023/12/18 07:19:33;;;;;;;4.43;4.22;;;;;;;0.97;100.00;102158.06;5060888;28;20056;-74
2023/12/18 07:22:00;;;;;;;0.93;0.93;;;;;;;1.03;100.00;102137.81;5069514;28;20154;-76
2023/12/18 07:24:25;;;;;;;10.40;9.80;;;;;;;1.74;100.00;102240.72;5071679;28;20143;-73
2023/12/18 07:26:51;;;;;;;1.65;1.55;;;;;;;1.23;100.00;102122.72;5069665;28;20568;-75
2023/12/18 07:29:17;;;;;;;2.38;2.28;;;;;;;1.71;100.00;102198.22;5046592;28;20052;-74
2023/12/18 07:31:42;;;;;;;0.30;0.30;;;;;;;1.38;100.00;102139.25;5066864;28;20106;-74
2023/12/18 07:34:08;;;;;;;1.55;1.27;;;;;;;1.65;100.00;102178.03;5065399;28;20024;-75
2023/12/18 07:36:35;;;;;;;0.77;0.77;;;;;;;2.06;100.00;102221.19;5068708;28;20550;-74
2023/12/18 07:39:02;;;;;;;0.40;0.40;;;;;;;1.85;100.00;102143.97;5062547;28;20048;-75
2023/12/18 07:41:30;;;;;;;7.70;7.03;;;;;;;1.67;100.00;102110.06;5064591;28;20048;-74
2023/12/18 07:43:56;;;;;;;1.50;1.40;;;;;;;2.24;100.00;102200.75;5065060;28;20063;-74
2023/12/18 07:46:22;;;;;;;3.17;2.97;;;;;;;2.17;100.00;102162.31;5047494;28;20512;-76
2023/12/18 07:48:48;;;;;;;0.80;0.80;;;;;;;2.09;100.00;102138.53;5048230;28;20033;-75
2023/12/18 07:51:14;;;;;;;2.00;1.90;;;;;;;1.82;100.00;102089.41;5063349;28;20139;-75
2023/12/18 07:53:40;;;;;;;0.60;0.60;;;;;;;1.88;100.00;102061.34;5065280;28;20048;-74
2023/12/18 07:56:06;;;;;;;0.30;0.30;;;;;;;1.70;100.00;102091.25;5064281;28;20085;-75
2023/12/18 07:58:31;;;;;;;0.60;0.60;;;;;;;2.33;100.00;102184.06;5066021;28;20059;-74
2023/12/18 08:00:57;;;;;;;1.92;1.85;;;;;;;1.66;100.00;102058.19;5062532;28;20420;-76
2023/12/18 08:03:22;;;;;;;1.63;1.52;;;;;;;2.15;100.00;102114.72;5068425;28;20567;-74
2023/12/18 08:05:49;;;;;;;2.10;2.00;;;;;;;1.88;100.00;102057.88;5059606;28;20054;-74
2023/12/18 08:08:14;;;;;;;3.13;2.92;;;;;;;2.51;100.00;102191.22;5063772;28;20631;-75
2023/12/18 08:10:41;;;;;;;0.40;0.40;;;;;;;1.96;100.00;102064.38;5056301;28;20104;-75
2023/12/18 08:13:06;;;;;;;0.40;0.40;;;;;;;2.61;100.00;102192.66;5061640;28;20472;-74
2023/12/18 08:15:32;;;;;;;0.95;0.95;;;;;;;2.25;100.00;102132.63;5063857;28;20048;-74
2023/12/18 08:17:57;;;;;;;1.02;1.02;;;;;;;2.35;100.00;102166.06;5046564;28;20468;-74
2023/12/18 08:20:23;;;;;;;2.70;1.40;;;;;;;2.66;100.00;102201.59;5035268;28;20053;-75
2023/12/18 08:22:50;;;;;;;4.68;4.47;;;;;;;2.64;100.00;102180.78;5032151;28;20111;-74
2023/12/18 08:25:16;;;;;;;1.65;1.55;;;;;;;2.10;100.00;102075.59;5044465;28;20053;-74
2023/12/18 08:27:41;;;;;;;13.75;12.57;;;;;;;2.56;100.00;102169.06;5072519;28;20826;-75
2023/12/18 08:30:10;;;;;;;0.65;0.65;;;;;;;2.62;100.00;102165.94;5065467;28;20523;-74
2023/12/18 08:32:37;;;;;;;1.58;1.48;;;;;;;2.89;100.00;102157.22;5067126;28;20074;-75
2023/12/18 08:35:03;;;;;;;5.03;4.82;;;;;;;2.38;100.00;102072.09;5065842;28;20063;-74
2023/12/18 08:37:28;;;;;;;6.32;5.93;;;;;;;2.62;100.00;102135.75;5065219;28;20120;-75
2023/12/18 08:39:55;;;;;;;1.70;1.60;;;;;;;2.83;100.00;102184.47;5062275;28;20040;-75
2023/12/18 08:42:22;;;;;;;0.85;0.85;;;;;;;2.45;100.00;102072.53;5063152;28;20060;-74
2023/12/18 08:44:48;;;;;;;8.25;7.82;;;;;;;3.13;100.00;102177.63;5035380;28;20059;-75
2023/12/18 08:47:14;;;;;;;3.85;3.55;;;;;;;3.24;100.00;102147.13;5052496;28;20037;-74
2023/12/18 08:49:39;;;;;;;1.17;1.17;;;;;;;3.25;100.00;102143.72;5050543;28;20063;-76
2023/12/18 08:52:05;;;;;;;1.25;1.15;;;;;;;3.38;100.00;102138.44;5056028;28;20456;-73
2023/12/18 08:54:31;;;;;;;1.25;1.25;;;;;;;2.80;100.00;102060.75;5061381;28;20056;-74
2023/12/18 08:56:57;;;;;;;6.70;3.38;;;;;;;2.76;100.00;102048.44;5065465;28;20032;-73
2023/12/18 08:59:23;;;;;;;1.38;1.30;;;;;;;3.42;100.00;102168.03;5056514;28;20111;-74
2023/12/18 09:01:50;;;;;;;7.97;7.32;;;;;;;3.46;100.00;102152.72;5057763;28;20507;-75
2023/12/18 09:04:15;;;;;;;0.50;0.50;;;;;;;3.22;100.00;102076.13;5057993;28;20028;-75
2023/12/18 09:06:40;;;;;;;1.77;1.67;;;;;;;3.73;100.00;102129.16;5063928;28;20103;-74
2023/12/18 09:09:06;;;;;;;4.85;4.40;;;;;;;3.88;100.00;102126.50;5069467;28;20393;-75
2023/12/18 09:11:33;;;;;;;1.30;0.85;;;;;;;4.02;100.00;102128.13;5045350;28;20571;-74
2023/12/18 09:14:00;;;;;;;5.00;4.70;;;;;;;3.64;100.00;102108.75;5051278;28;20480;-75
2023/12/18 09:16:26;;;;;;;1.35;1.25;;;;;;;3.94;100.00;102113.84;5054848;28;20055;-75
2023/12/18 09:18:52;;;;;;;1.38;1.27;;;;;;;2.63;100.00;101935.41;5054563;28;20131;-74
2023/12/18 09:21:17;;;;;;;1.25;1.15;;;;;;;3.77;100.00;102118.13;5058915;28;20823;-76
2023/12/18 09:23:44;;;;;;;3.45;3.25;;;;;;;3.96;100.00;102110.53;5055882;28;20041;-75
2023/12/18 09:26:13;;;;;;;7.30;6.82;;;;;;;3.74;100.00;102034.88;5056368;28;20152;-74
2023/12/18 09:28:38;;;;;;;1.08;1.08;;;;;;;4.33;100.00;102098.59;5034362;28;20061;-75
2023/12/18 09:31:07;;;;;;;0.77;0.77;;;;;;;4.36;100.00;102065.88;5052847;28;20079;-74
2023/12/18 09:33:35;;;;;;;7.57;4.13;;;;;;;4.77;100.00;102108.69;5059249;28;20052;-74
2023/12/18 09:36:01;;;;;;;0.85;0.85;;;;;;;4.14;100.00;102017.09;5057392;28;20698;-75
2023/12/18 09:38:27;;;;;;;0.93;0.93;;;;;;;4.30;100.00;102052.56;5029748;28;20056;-74
2023/12/18 09:40:53;;;;;;;0.95;0.95;;;;;;;5.07;100.00;102101.53;5054203;28;20072;-74
2023/12/18 09:43:19;;;;;;;0.60;0.60;;;;;;;5.13;100.00;102082.75;5056309;28;20071;-74
2023/12/18 09:45:48;;;;;;;1.30;1.23;;;;;;;5.09;100.00;102112.03;5052196;28;20037;-75
2023/12/18 09:48:16;;;;;;;3.20;3.05;;;;;;;5.19;100.00;102089.97;5057614;28;20131;-74
2023/12/18 09:50:44;;;;;;;0.68;0.68;;;;;;;5.26;100.00;102082.50;5058742;28;20054;-75
2023/12/18 09:53:12;;;;;;;1.60;1.50;;;;;;;4.96;100.00;102048.09;5059849;28;20060;-75
2023/12/18 09:55:39;;;;;;;0.47;0.47;;;;;;;5.06;100.00;102037.34;5055407;28;20051;-75
2023/12/18 09:58:06;;;;;;;2.75;2.55;;;;;;;5.37;100.00;102074.34;5053579;28;20055;-74
2023/12/18 10:00:32;;;;;;;0.68;0.68;;;;;;;4.78;100.00;101972.69;5061279;28;20137;-74
2023/12/18 10:02:59;;;;;;;1.35;1.25;;;;;;;5.13;100.00;102050.63;5044477;28;20451;-74
2023/12/18 10:05:26;;;;;;;1.42;0.73;;;;;;;5.43;100.00;102052.13;5056914;28;20432;-75
2023/12/18 10:07:53;;;;;;;0.63;0.63;;;;;;;5.07;100.00;101988.78;5057314;28;20040;-74
2023/12/18 10:10:19;;;;;;;0.77;0.77;;;;;;;5.07;100.00;101974.06;5057162;28;20137;-76
2023/12/18 10:12:48;;;;;;;3.63;3.45;;;;;;;5.60;100.00;102052.91;5045997;28;20052;-74
2023/12/18 10:15:16;;;;;;;0.45;0.45;;;;;;;5.17;100.00;102056.03;5064787;28;20055;-73
2023/12/18 10:17:43;;;;;;;0.50;0.50;;;;;;;5.00;100.00;101952.91;5062442;28;20064;-73
2023/12/18 10:20:11;;;;;;;1.88;1.77;;;;;;;5.81;100.00;102053.00;5060992;28;20067;-73
2023/12/18 10:22:38;;;;;;;0.30;0.30;;;;;;;5.61;100.00;101988.69;5057014;28;20087;-73
2023/12/18 10:25:06;;;;;;;1.80;1.70;;;;;;;5.32;100.00;101927.50;5066459;28;20033;-73
2023/12/18 10:27:32;;;;;;;3.42;3.22;;;;;;;5.61;100.00;101992.19;5054988;28;20088;-74
2023/12/18 10:29:58;;;;;;;3.17;3.03;;;;;;;5.82;100.00;102020.03;5066277;28;20401;-73
2023/12/18 10:32:27;;;;;;;3.47;3.33;;;;;;;6.10;100.00;102010.03;5060761;28;20060;-73
2023/12/18 10:34:54;;;;;;;0.68;0.65;;;;;;;6.24;100.00;101994.13;5058903;28;20049;-73
2023/12/18 10:37:22;;;;;;;19.20;17.45;;;;;;;6.73;100.00;102023.16;5062025;28;20044;-73
2023/12/18 10:39:51;;;;;;;1.50;1.40;;;;;;;6.05;100.00;101915.16;5046498;28;20408;-75
2023/12/18 10:42:36;;;;;;;25.80;6.22;;;;;;;6.98;100.00;101995.47;5044196;28;20044;-74
2023/12/18 10:45:06;;;;;;;0.93;0.93;;;;;;;7.28;100.00;102034.97;5059150;28;20538;-74
2023/12/18 10:47:32;;;;;;;0.88;0.88;;;;;;;7.53;100.00;102015.00;5065822;28;20136;-74
2023/12/18 10:50:02;;;;;;;1.48;1.25;;;;;;;7.75;100.00;102019.31;5049612;28;20056;-74
2023/12/18 10:52:32;;;;;;;2.70;1.60;;;;;;;7.05;100.00;101944.41;5057468;28;20113;-75
2023/12/18 10:55:05;;;;;;;0.60;0.60;;;;;;;7.19;100.00;101915.41;5059008;28;20060;-76
2023/12/18 10:57:37;;;;;;;1.58;1.52;;;;;;;7.26;100.00;101923.44;5041923;28;20041;-77
2023/12/18 11:00:04;;;;;;;0.50;0.50;;;;;;;7.25;100.00;101914.72;5058100;28;20102;-77
2023/12/18 11:02:34;;;;;;;2.60;2.38;;;;;;;7.37;100.00;101885.56;5065650;28;20123;-77
2023/12/18 11:05:04;;;;;;;0.90;0.90;;;;;;;7.17;100.00;101867.47;5058975;28;20053;-75
2023/12/18 11:07:31;;;;;;;4.78;4.43;;;;;;;7.35;100.00;101861.13;5049843;28;20036;-74
2023/12/18 11:09:58;;;;;;;0.75;0.75;;;;;;;7.30;100.00;101866.19;5030285;28;20512;-75
2023/12/18 11:12:25;;;;;;;1.23;1.13;;;;;;;7.26;100.00;101845.13;5060190;28;20420;-74
2023/12/18 11:15:09;;;;;;;2.20;2.05;;;;;;;8.01;100.00;101955.84;5060725;28;20066;-75
2023/12/18 11:18:04;;;;;;;5.35;4.88;;;;;;;8.08;100.00;101971.72;5062877;28;20056;-75
2023/12/18 11:20:40;;;;;;;1.75;1.65;;;;;;;8.03;100.00;101950.69;5045561;28;20045;-74